sensor_id;sensor_type;location;lat;lon;timestamp;temperature;humidity
39931;DHT22;26635;-35.248;149.138;2023-10-19T00:02:21;18.70;65.70
39931;DHT22;26635;-35.248;149.138;2023-10-19T00:04:53;18.90;64.10
39931;DHT22;26635;-35.248;149.138;2023-10-19T00:07:26;18.90;63.80
39931;DHT22;26635;-35.248;149.138;2023-10-19T00:10:00;19.00;64.60
39931;DHT22;26635;-35.248;149.138;2023-10-19T00:12:33;19.20;65.00
39931;DHT22;26635;-35.248;149.138;2023-10-19T00:15:05;19.40;64.00
39931;DHT22;26635;-35.248;149.138;2023-10-19T00:17:37;19.50;64.00
39931;DHT22;26635;-35.248;149.138;2023-10-19T00:20:10;19.50;62.50
39931;DHT22;26635;-35.248;149.138;2023-10-19T00:23:20;19.50;63.10
39931;DHT22;26635;-35.248;149.138;2023-10-19T00:26:08;19.60;63.50
39931;DHT22;26635;-35.248;149.138;2023-10-19T00:28:53;19.60;63.20
39931;DHT22;26635;-35.248;149.138;2023-10-19T00:31:28;19.80;63.00
39931;DHT22;26635;-35.248;149.138;2023-10-19T00:34:02;20.00;62.80
39931;DHT22;26635;-35.248;149.138;2023-10-19T00:36:34;20.10;62.40
39931;DHT22;26635;-35.248;149.138;2023-10-19T00:39:08;20.30;62.00
39931;DHT22;26635;-35.248;149.138;2023-10-19T00:41:51;20.30;62.10
39931;DHT22;26635;-35.248;149.138;2023-10-19T00:44:26;20.40;61.70
39931;DHT22;26635;-35.248;149.138;2023-10-19T00:47:26;20.50;61.00
39931;DHT22;26635;-35.248;149.138;2023-10-19T00:50:00;20.50;61.20
39931;DHT22;26635;-35.248;149.138;2023-10-19T00:52:34;20.60;61.90
39931;DHT22;26635;-35.248;149.138;2023-10-19T00:55:14;20.80;60.00
39931;DHT22;26635;-35.248;149.138;2023-10-19T00:57:45;20.90;60.00
39931;DHT22;26635;-35.248;149.138;2023-10-19T01:00:20;21.10;58.90
39931;DHT22;26635;-35.248;149.138;2023-10-19T01:03:04;21.20;60.50
39931;DHT22;26635;-35.248;149.138;2023-10-19T01:05:38;21.30;59.50
39931;DHT22;26635;-35.248;149.138;2023-10-19T01:08:11;21.30;59.30
39931;DHT22;26635;-35.248;149.138;2023-10-19T01:11:03;21.40;59.00
39931;DHT22;26635;-35.248;149.138;2023-10-19T01:13:33;21.60;59.00
39931;DHT22;26635;-35.248;149.138;2023-10-19T01:16:04;21.80;58.10
39931;DHT22;26635;-35.248;149.138;2023-10-19T01:18:35;21.80;58.10
39931;DHT22;26635;-35.248;149.138;2023-10-19T01:21:06;21.80;57.90
39931;DHT22;26635;-35.248;149.138;2023-10-19T01:23:39;21.90;57.50
39931;DHT22;26635;-35.248;149.138;2023-10-19T01:26:10;22.00;57.70
39931;DHT22;26635;-35.248;149.138;2023-10-19T01:28:48;21.90;57.30
39931;DHT22;26635;-35.248;149.138;2023-10-19T01:31:22;22.00;56.80
39931;DHT22;26635;-35.248;149.138;2023-10-19T01:34:11;22.10;57.90
39931;DHT22;26635;-35.248;149.138;2023-10-19T01:36:42;22.30;58.90
39931;DHT22;26635;-35.248;149.138;2023-10-19T01:39:13;22.50;58.00
39931;DHT22;26635;-35.248;149.138;2023-10-19T01:41:48;22.70;56.90
39931;DHT22;26635;-35.248;149.138;2023-10-19T01:44:21;22.70;55.90
39931;DHT22;26635;-35.248;149.138;2023-10-19T01:46:54;22.70;55.80
39931;DHT22;26635;-35.248;149.138;2023-10-19T01:49:28;22.70;57.40
39931;DHT22;26635;-35.248;149.138;2023-10-19T01:52:02;22.80;57.60
39931;DHT22;26635;-35.248;149.138;2023-10-19T01:54:34;22.90;57.70
39931;DHT22;26635;-35.248;149.138;2023-10-19T01:57:08;23.00;54.80
39931;DHT22;26635;-35.248;149.138;2023-10-19T01:59:39;22.90;55.20
39931;DHT22;26635;-35.248;149.138;2023-10-19T02:02:13;23.10;55.80
39931;DHT22;26635;-35.248;149.138;2023-10-19T02:04:46;23.10;55.10
39931;DHT22;26635;-35.248;149.138;2023-10-19T02:07:19;23.00;54.30
39931;DHT22;26635;-35.248;149.138;2023-10-19T02:09:50;22.90;53.90
39931;DHT22;26635;-35.248;149.138;2023-10-19T02:12:21;22.90;54.00
39931;DHT22;26635;-35.248;149.138;2023-10-19T02:14:51;22.90;54.20
39931;DHT22;26635;-35.248;149.138;2023-10-19T02:17:23;22.90;53.20
39931;DHT22;26635;-35.248;149.138;2023-10-19T02:19:54;23.00;53.10
39931;DHT22;26635;-35.248;149.138;2023-10-19T02:22:25;23.20;54.50
39931;DHT22;26635;-35.248;149.138;2023-10-19T02:24:59;23.50;54.10
39931;DHT22;26635;-35.248;149.138;2023-10-19T02:27:30;23.70;53.50
39931;DHT22;26635;-35.248;149.138;2023-10-19T02:30:01;23.80;51.50
39931;DHT22;26635;-35.248;149.138;2023-10-19T02:32:32;23.80;52.70
39931;DHT22;26635;-35.248;149.138;2023-10-19T02:35:03;23.80;52.60
39931;DHT22;26635;-35.248;149.138;2023-10-19T02:37:34;23.80;52.90
39931;DHT22;26635;-35.248;149.138;2023-10-19T02:40:05;23.80;53.30
39931;DHT22;26635;-35.248;149.138;2023-10-19T02:42:49;23.60;52.70
39931;DHT22;26635;-35.248;149.138;2023-10-19T02:45:23;23.70;52.80
39931;DHT22;26635;-35.248;149.138;2023-10-19T02:47:54;23.80;53.10
39931;DHT22;26635;-35.248;149.138;2023-10-19T02:50:26;23.90;51.80
39931;DHT22;26635;-35.248;149.138;2023-10-19T02:52:56;24.10;51.60
39931;DHT22;26635;-35.248;149.138;2023-10-19T02:55:27;24.20;49.40
39931;DHT22;26635;-35.248;149.138;2023-10-19T02:57:57;24.30;48.70
39931;DHT22;26635;-35.248;149.138;2023-10-19T03:00:31;24.50;48.30
39931;DHT22;26635;-35.248;149.138;2023-10-19T03:03:05;24.60;50.20
39931;DHT22;26635;-35.248;149.138;2023-10-19T03:05:37;24.60;46.30
39931;DHT22;26635;-35.248;149.138;2023-10-19T03:08:09;24.70;46.30
39931;DHT22;26635;-35.248;149.138;2023-10-19T03:10:41;24.70;44.00
39931;DHT22;26635;-35.248;149.138;2023-10-19T03:13:15;24.70;44.50
39931;DHT22;26635;-35.248;149.138;2023-10-19T03:15:48;24.80;43.70
39931;DHT22;26635;-35.248;149.138;2023-10-19T03:18:20;24.90;43.20
39931;DHT22;26635;-35.248;149.138;2023-10-19T03:20:52;25.00;44.90
39931;DHT22;26635;-35.248;149.138;2023-10-19T03:23:26;25.00;45.00
39931;DHT22;26635;-35.248;149.138;2023-10-19T03:25:58;25.00;44.30
39931;DHT22;26635;-35.248;149.138;2023-10-19T03:28:37;25.10;43.20
39931;DHT22;26635;-35.248;149.138;2023-10-19T03:31:07;25.10;43.00
39931;DHT22;26635;-35.248;149.138;2023-10-19T03:33:38;25.10;42.50
39931;DHT22;26635;-35.248;149.138;2023-10-19T03:36:13;25.20;43.40
39931;DHT22;26635;-35.248;149.138;2023-10-19T03:38:43;25.20;44.30
39931;DHT22;26635;-35.248;149.138;2023-10-19T03:41:15;25.10;44.40
39931;DHT22;26635;-35.248;149.138;2023-10-19T03:43:46;25.10;43.50
39931;DHT22;26635;-35.248;149.138;2023-10-19T03:46:23;25.10;44.00
39931;DHT22;26635;-35.248;149.138;2023-10-19T03:49:08;25.10;43.30
39931;DHT22;26635;-35.248;149.138;2023-10-19T03:51:43;25.10;43.60
39931;DHT22;26635;-35.248;149.138;2023-10-19T03:54:49;25.10;42.60
39931;DHT22;26635;-35.248;149.138;2023-10-19T03:57:21;25.10;44.20
39931;DHT22;26635;-35.248;149.138;2023-10-19T04:00:01;25.10;43.30
39931;DHT22;26635;-35.248;149.138;2023-10-19T04:02:34;25.00;43.90
39931;DHT22;26635;-35.248;149.138;2023-10-19T04:05:11;24.90;42.80
39931;DHT22;26635;-35.248;149.138;2023-10-19T04:07:46;24.90;43.80
39931;DHT22;26635;-35.248;149.138;2023-10-19T04:10:22;24.80;43.50
39931;DHT22;26635;-35.248;149.138;2023-10-19T04:13:05;24.70;43.30
39931;DHT22;26635;-35.248;149.138;2023-10-19T04:15:41;24.50;42.60
39931;DHT22;26635;-35.248;149.138;2023-10-19T04:18:12;24.30;43.10
39931;DHT22;26635;-35.248;149.138;2023-10-19T04:20:42;24.40;43.40
39931;DHT22;26635;-35.248;149.138;2023-10-19T04:23:27;24.40;43.70
39931;DHT22;26635;-35.248;149.138;2023-10-19T04:25:57;24.50;44.20
39931;DHT22;26635;-35.248;149.138;2023-10-19T04:28:28;24.60;43.40
39931;DHT22;26635;-35.248;149.138;2023-10-19T04:31:08;24.50;43.10
39931;DHT22;26635;-35.248;149.138;2023-10-19T04:33:43;24.50;41.60
39931;DHT22;26635;-35.248;149.138;2023-10-19T04:36:16;24.30;40.80
39931;DHT22;26635;-35.248;149.138;2023-10-19T04:38:50;24.30;40.80
39931;DHT22;26635;-35.248;149.138;2023-10-19T04:41:21;24.40;42.70
39931;DHT22;26635;-35.248;149.138;2023-10-19T04:43:55;24.40;42.40
39931;DHT22;26635;-35.248;149.138;2023-10-19T04:46:28;24.40;41.30
39931;DHT22;26635;-35.248;149.138;2023-10-19T04:48:59;24.30;42.90
39931;DHT22;26635;-35.248;149.138;2023-10-19T04:51:30;24.30;42.60
39931;DHT22;26635;-35.248;149.138;2023-10-19T04:54:02;24.30;42.70
39931;DHT22;26635;-35.248;149.138;2023-10-19T04:56:32;24.30;41.10
39931;DHT22;26635;-35.248;149.138;2023-10-19T04:59:03;24.30;41.30
39931;DHT22;26635;-35.248;149.138;2023-10-19T05:01:34;24.30;43.00
39931;DHT22;26635;-35.248;149.138;2023-10-19T05:04:05;24.30;42.60
39931;DHT22;26635;-35.248;149.138;2023-10-19T05:06:36;24.30;41.10
39931;DHT22;26635;-35.248;149.138;2023-10-19T05:09:09;24.30;40.80
39931;DHT22;26635;-35.248;149.138;2023-10-19T05:11:39;24.20;41.60
39931;DHT22;26635;-35.248;149.138;2023-10-19T05:14:11;24.10;42.80
39931;DHT22;26635;-35.248;149.138;2023-10-19T05:16:43;24.00;41.40
39931;DHT22;26635;-35.248;149.138;2023-10-19T05:19:14;23.90;42.40
39931;DHT22;26635;-35.248;149.138;2023-10-19T05:21:44;23.90;41.80
39931;DHT22;26635;-35.248;149.138;2023-10-19T05:24:15;23.80;40.20
39931;DHT22;26635;-35.248;149.138;2023-10-19T05:26:46;23.70;39.40
39931;DHT22;26635;-35.248;149.138;2023-10-19T05:29:18;23.70;39.20
39931;DHT22;26635;-35.248;149.138;2023-10-19T05:31:50;23.70;40.50
39931;DHT22;26635;-35.248;149.138;2023-10-19T05:34:24;23.60;43.10
39931;DHT22;26635;-35.248;149.138;2023-10-19T05:36:56;23.60;41.50
39931;DHT22;26635;-35.248;149.138;2023-10-19T05:39:29;23.40;41.50
39931;DHT22;26635;-35.248;149.138;2023-10-19T05:42:00;23.30;42.70
39931;DHT22;26635;-35.248;149.138;2023-10-19T05:44:31;23.30;42.80
39931;DHT22;26635;-35.248;149.138;2023-10-19T05:47:04;23.20;43.60
39931;DHT22;26635;-35.248;149.138;2023-10-19T05:49:35;23.20;43.90
39931;DHT22;26635;-35.248;149.138;2023-10-19T05:52:06;23.10;44.70
39931;DHT22;26635;-35.248;149.138;2023-10-19T05:54:36;23.10;44.20
39931;DHT22;26635;-35.248;149.138;2023-10-19T05:57:10;23.00;42.50
39931;DHT22;26635;-35.248;149.138;2023-10-19T05:59:41;22.90;43.50
39931;DHT22;26635;-35.248;149.138;2023-10-19T06:02:11;22.90;43.20
39931;DHT22;26635;-35.248;149.138;2023-10-19T06:04:44;22.80;44.40
39931;DHT22;26635;-35.248;149.138;2023-10-19T06:07:17;22.80;44.00
39931;DHT22;26635;-35.248;149.138;2023-10-19T06:09:48;22.80;43.60
39931;DHT22;26635;-35.248;149.138;2023-10-19T06:12:18;22.70;45.00
39931;DHT22;26635;-35.248;149.138;2023-10-19T06:14:53;22.70;45.40
39931;DHT22;26635;-35.248;149.138;2023-10-19T06:17:24;22.60;44.20
39931;DHT22;26635;-35.248;149.138;2023-10-19T06:19:57;22.60;45.20
39931;DHT22;26635;-35.248;149.138;2023-10-19T06:22:28;22.60;46.30
39931;DHT22;26635;-35.248;149.138;2023-10-19T06:25:02;22.60;43.50
39931;DHT22;26635;-35.248;149.138;2023-10-19T06:27:39;22.60;45.10
39931;DHT22;26635;-35.248;149.138;2023-10-19T06:30:20;22.60;46.50
39931;DHT22;26635;-35.248;149.138;2023-10-19T06:32:57;22.60;46.20
39931;DHT22;26635;-35.248;149.138;2023-10-19T06:35:34;22.60;47.50
39931;DHT22;26635;-35.248;149.138;2023-10-19T06:38:10;22.60;46.00
39931;DHT22;26635;-35.248;149.138;2023-10-19T06:40:47;22.60;48.20
39931;DHT22;26635;-35.248;149.138;2023-10-19T06:43:20;22.50;50.40
39931;DHT22;26635;-35.248;149.138;2023-10-19T06:45:56;22.60;51.70
39931;DHT22;26635;-35.248;149.138;2023-10-19T06:48:31;22.50;52.70
39931;DHT22;26635;-35.248;149.138;2023-10-19T06:51:01;22.50;52.30
39931;DHT22;26635;-35.248;149.138;2023-10-19T06:53:38;22.50;52.80
39931;DHT22;26635;-35.248;149.138;2023-10-19T06:56:09;22.40;53.00
39931;DHT22;26635;-35.248;149.138;2023-10-19T06:58:47;22.40;53.60
39931;DHT22;26635;-35.248;149.138;2023-10-19T07:01:19;22.40;52.70
39931;DHT22;26635;-35.248;149.138;2023-10-19T07:03:56;22.40;53.10
39931;DHT22;26635;-35.248;149.138;2023-10-19T07:06:28;22.30;54.60
39931;DHT22;26635;-35.248;149.138;2023-10-19T07:09:04;22.30;54.40
39931;DHT22;26635;-35.248;149.138;2023-10-19T07:11:38;22.30;54.00
39931;DHT22;26635;-35.248;149.138;2023-10-19T07:14:12;22.20;53.60
39931;DHT22;26635;-35.248;149.138;2023-10-19T07:16:45;22.20;55.10
39931;DHT22;26635;-35.248;149.138;2023-10-19T07:19:19;22.20;56.10
39931;DHT22;26635;-35.248;149.138;2023-10-19T07:21:55;22.10;55.80
39931;DHT22;26635;-35.248;149.138;2023-10-19T07:24:32;22.10;56.00
39931;DHT22;26635;-35.248;149.138;2023-10-19T07:27:09;22.00;56.70
39931;DHT22;26635;-35.248;149.138;2023-10-19T07:30:05;22.00;56.40
39931;DHT22;26635;-35.248;149.138;2023-10-19T07:32:41;21.90;56.70
39931;DHT22;26635;-35.248;149.138;2023-10-19T07:35:13;21.90;57.00
39931;DHT22;26635;-35.248;149.138;2023-10-19T07:37:44;21.90;56.80
39931;DHT22;26635;-35.248;149.138;2023-10-19T07:40:16;21.90;57.00
39931;DHT22;26635;-35.248;149.138;2023-10-19T07:42:49;21.90;57.40
39931;DHT22;26635;-35.248;149.138;2023-10-19T07:45:24;21.80;57.50
39931;DHT22;26635;-35.248;149.138;2023-10-19T07:48:06;21.70;58.00
39931;DHT22;26635;-35.248;149.138;2023-10-19T07:50:40;21.60;57.70
39931;DHT22;26635;-35.248;149.138;2023-10-19T07:53:20;21.50;57.90
39931;DHT22;26635;-35.248;149.138;2023-10-19T07:56:06;21.40;57.90
39931;DHT22;26635;-35.248;149.138;2023-10-19T07:58:38;21.30;58.40
39931;DHT22;26635;-35.248;149.138;2023-10-19T08:01:11;21.20;59.10
39931;DHT22;26635;-35.248;149.138;2023-10-19T08:03:45;21.10;58.70
39931;DHT22;26635;-35.248;149.138;2023-10-19T08:06:16;21.00;59.20
39931;DHT22;26635;-35.248;149.138;2023-10-19T08:08:57;20.90;59.30
39931;DHT22;26635;-35.248;149.138;2023-10-19T08:11:27;20.80;59.40
39931;DHT22;26635;-35.248;149.138;2023-10-19T08:13:58;20.70;59.80
39931;DHT22;26635;-35.248;149.138;2023-10-19T08:16:39;20.60;60.10
39931;DHT22;26635;-35.248;149.138;2023-10-19T08:19:14;20.50;60.30
39931;DHT22;26635;-35.248;149.138;2023-10-19T08:21:45;20.40;60.60
39931;DHT22;26635;-35.248;149.138;2023-10-19T08:24:20;20.30;60.80
39931;DHT22;26635;-35.248;149.138;2023-10-19T08:26:51;20.20;61.00
39931;DHT22;26635;-35.248;149.138;2023-10-19T08:29:25;20.10;61.40
39931;DHT22;26635;-35.248;149.138;2023-10-19T08:31:59;19.90;61.50
39931;DHT22;26635;-35.248;149.138;2023-10-19T08:34:36;19.80;61.90
39931;DHT22;26635;-35.248;149.138;2023-10-19T08:37:09;19.70;62.10
39931;DHT22;26635;-35.248;149.138;2023-10-19T08:39:43;19.60;62.40
39931;DHT22;26635;-35.248;149.138;2023-10-19T08:42:16;19.50;63.30
39931;DHT22;26635;-35.248;149.138;2023-10-19T08:44:47;19.40;63.70
39931;DHT22;26635;-35.248;149.138;2023-10-19T08:47:24;19.30;64.20
39931;DHT22;26635;-35.248;149.138;2023-10-19T08:49:55;19.20;64.50
39931;DHT22;26635;-35.248;149.138;2023-10-19T08:52:30;19.10;64.60
39931;DHT22;26635;-35.248;149.138;2023-10-19T08:55:04;19.00;65.10
39931;DHT22;26635;-35.248;149.138;2023-10-19T08:57:37;18.90;65.60
39931;DHT22;26635;-35.248;149.138;2023-10-19T09:00:08;18.70;65.40
39931;DHT22;26635;-35.248;149.138;2023-10-19T09:02:42;18.60;66.00
39931;DHT22;26635;-35.248;149.138;2023-10-19T09:05:17;18.50;66.50
39931;DHT22;26635;-35.248;149.138;2023-10-19T09:07:58;18.50;66.70
39931;DHT22;26635;-35.248;149.138;2023-10-19T09:10:29;18.30;67.20
39931;DHT22;26635;-35.248;149.138;2023-10-19T09:13:07;18.30;67.50
39931;DHT22;26635;-35.248;149.138;2023-10-19T09:15:44;18.10;67.50
39931;DHT22;26635;-35.248;149.138;2023-10-19T09:18:25;18.00;67.70
39931;DHT22;26635;-35.248;149.138;2023-10-19T09:21:00;18.00;68.30
39931;DHT22;26635;-35.248;149.138;2023-10-19T09:23:39;17.90;68.30
39931;DHT22;26635;-35.248;149.138;2023-10-19T09:26:14;17.80;69.40
39931;DHT22;26635;-35.248;149.138;2023-10-19T09:28:54;17.70;68.60
39931;DHT22;26635;-35.248;149.138;2023-10-19T09:31:28;17.70;68.90
39931;DHT22;26635;-35.248;149.138;2023-10-19T09:34:02;17.70;69.40
39931;DHT22;26635;-35.248;149.138;2023-10-19T09:36:44;17.60;69.60
39931;DHT22;26635;-35.248;149.138;2023-10-19T09:39:15;17.60;70.00
39931;DHT22;26635;-35.248;149.138;2023-10-19T09:41:55;17.50;70.40
39931;DHT22;26635;-35.248;149.138;2023-10-19T09:44:35;17.40;70.30
39931;DHT22;26635;-35.248;149.138;2023-10-19T09:47:27;17.40;70.50
39931;DHT22;26635;-35.248;149.138;2023-10-19T09:50:01;17.40;70.70
39931;DHT22;26635;-35.248;149.138;2023-10-19T09:52:34;17.30;70.80
39931;DHT22;26635;-35.248;149.138;2023-10-19T09:55:34;17.20;71.20
39931;DHT22;26635;-35.248;149.138;2023-10-19T09:58:17;17.10;71.60
39931;DHT22;26635;-35.248;149.138;2023-10-19T10:00:49;17.10;71.80
39931;DHT22;26635;-35.248;149.138;2023-10-19T10:03:53;17.00;71.90
39931;DHT22;26635;-35.248;149.138;2023-10-19T10:06:29;17.00;72.20
39931;DHT22;26635;-35.248;149.138;2023-10-19T10:09:05;16.90;72.30
39931;DHT22;26635;-35.248;149.138;2023-10-19T10:11:41;16.90;72.50
39931;DHT22;26635;-35.248;149.138;2023-10-19T10:14:26;16.80;73.00
39931;DHT22;26635;-35.248;149.138;2023-10-19T10:17:10;16.70;73.20
39931;DHT22;26635;-35.248;149.138;2023-10-19T10:19:49;16.70;73.60
39931;DHT22;26635;-35.248;149.138;2023-10-19T10:22:22;16.60;73.90
39931;DHT22;26635;-35.248;149.138;2023-10-19T10:24:56;16.50;74.50
39931;DHT22;26635;-35.248;149.138;2023-10-19T10:27:26;16.40;74.40
39931;DHT22;26635;-35.248;149.138;2023-10-19T10:30:01;16.30;74.70
39931;DHT22;26635;-35.248;149.138;2023-10-19T10:32:50;16.30;75.30
39931;DHT22;26635;-35.248;149.138;2023-10-19T10:38:14;16.10;75.70
39931;DHT22;26635;-35.248;149.138;2023-10-19T10:40:49;16.00;75.70
39931;DHT22;26635;-35.248;149.138;2023-10-19T10:43:22;15.90;76.20
39931;DHT22;26635;-35.248;149.138;2023-10-19T10:46:02;15.80;76.40
39931;DHT22;26635;-35.248;149.138;2023-10-19T10:48:42;15.70;76.90
39931;DHT22;26635;-35.248;149.138;2023-10-19T10:51:19;15.70;77.00
39931;DHT22;26635;-35.248;149.138;2023-10-19T10:53:58;15.60;77.70
39931;DHT22;26635;-35.248;149.138;2023-10-19T10:56:31;15.50;77.70
39931;DHT22;26635;-35.248;149.138;2023-10-19T10:59:13;15.40;77.90
39931;DHT22;26635;-35.248;149.138;2023-10-19T11:01:47;15.30;78.40
39931;DHT22;26635;-35.248;149.138;2023-10-19T11:04:21;15.30;78.20
39931;DHT22;26635;-35.248;149.138;2023-10-19T11:06:57;15.20;78.60
39931;DHT22;26635;-35.248;149.138;2023-10-19T11:09:44;15.20;78.40
39931;DHT22;26635;-35.248;149.138;2023-10-19T11:12:15;15.10;78.70
39931;DHT22;26635;-35.248;149.138;2023-10-19T11:14:58;15.10;78.50
39931;DHT22;26635;-35.248;149.138;2023-10-19T11:17:44;15.00;78.70
39931;DHT22;26635;-35.248;149.138;2023-10-19T11:20:23;14.90;79.30
39931;DHT22;26635;-35.248;149.138;2023-10-19T11:22:59;14.80;78.50
39931;DHT22;26635;-35.248;149.138;2023-10-19T11:25:39;14.80;79.40
39931;DHT22;26635;-35.248;149.138;2023-10-19T11:28:17;14.80;79.00
39931;DHT22;26635;-35.248;149.138;2023-10-19T11:30:50;14.70;79.20
39931;DHT22;26635;-35.248;149.138;2023-10-19T11:33:24;14.70;79.20
39931;DHT22;26635;-35.248;149.138;2023-10-19T11:35:58;14.50;79.30
39931;DHT22;26635;-35.248;149.138;2023-10-19T11:38:32;14.60;79.10
39931;DHT22;26635;-35.248;149.138;2023-10-19T11:41:04;14.50;80.30
39931;DHT22;26635;-35.248;149.138;2023-10-19T11:43:43;14.50;80.70
39931;DHT22;26635;-35.248;149.138;2023-10-19T11:46:17;14.40;80.00
39931;DHT22;26635;-35.248;149.138;2023-10-19T11:48:50;14.40;80.50
39931;DHT22;26635;-35.248;149.138;2023-10-19T11:51:24;14.30;80.30
39931;DHT22;26635;-35.248;149.138;2023-10-19T11:53:56;14.20;80.50
39931;DHT22;26635;-35.248;149.138;2023-10-19T11:56:30;14.20;80.90
39931;DHT22;26635;-35.248;149.138;2023-10-19T11:59:01;14.20;80.90
39931;DHT22;26635;-35.248;149.138;2023-10-19T12:01:42;14.10;81.40
39931;DHT22;26635;-35.248;149.138;2023-10-19T12:04:13;14.10;81.60
39931;DHT22;26635;-35.248;149.138;2023-10-19T12:06:47;14.00;81.50
39931;DHT22;26635;-35.248;149.138;2023-10-19T12:09:18;13.90;81.30
39931;DHT22;26635;-35.248;149.138;2023-10-19T12:11:58;13.90;81.40
39931;DHT22;26635;-35.248;149.138;2023-10-19T12:14:32;13.90;81.80
39931;DHT22;26635;-35.248;149.138;2023-10-19T12:17:09;13.80;82.50
39931;DHT22;26635;-35.248;149.138;2023-10-19T12:19:46;13.80;82.10
39931;DHT22;26635;-35.248;149.138;2023-10-19T12:22:16;13.80;82.20
39931;DHT22;26635;-35.248;149.138;2023-10-19T12:24:48;13.70;81.90
39931;DHT22;26635;-35.248;149.138;2023-10-19T12:27:20;13.70;82.40
39931;DHT22;26635;-35.248;149.138;2023-10-19T12:29:51;13.60;82.30
39931;DHT22;26635;-35.248;149.138;2023-10-19T12:32:29;13.60;82.50
39931;DHT22;26635;-35.248;149.138;2023-10-19T12:35:00;13.50;83.10
39931;DHT22;26635;-35.248;149.138;2023-10-19T12:37:48;13.50;83.20
39931;DHT22;26635;-35.248;149.138;2023-10-19T12:40:37;13.50;83.50
39931;DHT22;26635;-35.248;149.138;2023-10-19T12:43:10;13.40;83.30
39931;DHT22;26635;-35.248;149.138;2023-10-19T12:45:45;13.40;83.20
39931;DHT22;26635;-35.248;149.138;2023-10-19T12:48:22;13.40;82.80
39931;DHT22;26635;-35.248;149.138;2023-10-19T12:51:00;13.40;83.40
39931;DHT22;26635;-35.248;149.138;2023-10-19T12:53:34;13.30;83.70
39931;DHT22;26635;-35.248;149.138;2023-10-19T12:56:10;13.30;84.00
39931;DHT22;26635;-35.248;149.138;2023-10-19T12:58:45;13.20;84.00
39931;DHT22;26635;-35.248;149.138;2023-10-19T13:01:21;13.20;84.00
39931;DHT22;26635;-35.248;149.138;2023-10-19T13:04:01;13.20;83.70
39931;DHT22;26635;-35.248;149.138;2023-10-19T13:06:56;13.20;83.80
39931;DHT22;26635;-35.248;149.138;2023-10-19T13:09:32;13.10;84.50
39931;DHT22;26635;-35.248;149.138;2023-10-19T13:12:06;13.10;85.00
39931;DHT22;26635;-35.248;149.138;2023-10-19T13:14:46;13.00;85.60
39931;DHT22;26635;-35.248;149.138;2023-10-19T13:17:17;12.90;85.60
39931;DHT22;26635;-35.248;149.138;2023-10-19T13:19:48;12.90;85.80
39931;DHT22;26635;-35.248;149.138;2023-10-19T13:22:23;12.90;85.20
39931;DHT22;26635;-35.248;149.138;2023-10-19T13:24:55;12.80;86.10
39931;DHT22;26635;-35.248;149.138;2023-10-19T13:27:25;12.80;85.90
39931;DHT22;26635;-35.248;149.138;2023-10-19T13:30:05;12.80;85.90
39931;DHT22;26635;-35.248;149.138;2023-10-19T13:32:45;12.80;85.70
39931;DHT22;26635;-35.248;149.138;2023-10-19T13:35:16;12.70;86.10
39931;DHT22;26635;-35.248;149.138;2023-10-19T13:37:48;12.70;86.20
39931;DHT22;26635;-35.248;149.138;2023-10-19T13:40:21;12.70;86.10
39931;DHT22;26635;-35.248;149.138;2023-10-19T13:42:56;12.70;86.50
39931;DHT22;26635;-35.248;149.138;2023-10-19T13:45:32;12.60;86.50
39931;DHT22;26635;-35.248;149.138;2023-10-19T13:48:16;12.60;86.80
39931;DHT22;26635;-35.248;149.138;2023-10-19T13:50:50;12.50;87.10
39931;DHT22;26635;-35.248;149.138;2023-10-19T13:53:26;12.50;87.20
39931;DHT22;26635;-35.248;149.138;2023-10-19T13:55:56;12.50;87.40
39931;DHT22;26635;-35.248;149.138;2023-10-19T13:58:32;12.40;87.50
39931;DHT22;26635;-35.248;149.138;2023-10-19T14:01:08;12.40;87.20
39931;DHT22;26635;-35.248;149.138;2023-10-19T14:03:43;12.40;87.60
39931;DHT22;26635;-35.248;149.138;2023-10-19T14:06:17;12.30;87.60
39931;DHT22;26635;-35.248;149.138;2023-10-19T14:08:47;12.30;87.80
39931;DHT22;26635;-35.248;149.138;2023-10-19T14:11:18;12.30;89.00
39931;DHT22;26635;-35.248;149.138;2023-10-19T14:13:52;12.30;88.50
39931;DHT22;26635;-35.248;149.138;2023-10-19T14:16:22;12.30;87.90
39931;DHT22;26635;-35.248;149.138;2023-10-19T14:18:57;12.20;88.10
39931;DHT22;26635;-35.248;149.138;2023-10-19T14:21:28;12.20;88.10
39931;DHT22;26635;-35.248;149.138;2023-10-19T14:24:05;12.10;89.00
39931;DHT22;26635;-35.248;149.138;2023-10-19T14:26:41;12.10;88.10
39931;DHT22;26635;-35.248;149.138;2023-10-19T14:29:25;12.00;88.70
39931;DHT22;26635;-35.248;149.138;2023-10-19T14:32:01;12.00;88.80
39931;DHT22;26635;-35.248;149.138;2023-10-19T14:34:38;12.00;88.50
39931;DHT22;26635;-35.248;149.138;2023-10-19T14:37:12;12.00;90.10
39931;DHT22;26635;-35.248;149.138;2023-10-19T14:39:58;11.90;88.90
39931;DHT22;26635;-35.248;149.138;2023-10-19T14:42:32;11.80;90.10
39931;DHT22;26635;-35.248;149.138;2023-10-19T14:45:13;11.80;89.40
39931;DHT22;26635;-35.248;149.138;2023-10-19T14:47:50;11.80;90.00
39931;DHT22;26635;-35.248;149.138;2023-10-19T14:50:36;11.70;90.10
39931;DHT22;26635;-35.248;149.138;2023-10-19T14:53:12;11.70;89.80
39931;DHT22;26635;-35.248;149.138;2023-10-19T14:55:44;11.70;89.80
39931;DHT22;26635;-35.248;149.138;2023-10-19T14:58:17;11.70;89.00
39931;DHT22;26635;-35.248;149.138;2023-10-19T15:00:47;11.70;89.20
39931;DHT22;26635;-35.248;149.138;2023-10-19T15:03:27;11.60;89.80
39931;DHT22;26635;-35.248;149.138;2023-10-19T15:05:58;11.60;89.50
39931;DHT22;26635;-35.248;149.138;2023-10-19T15:08:32;11.60;90.30
39931;DHT22;26635;-35.248;149.138;2023-10-19T15:11:03;11.50;89.70
39931;DHT22;26635;-35.248;149.138;2023-10-19T15:13:36;11.50;89.70
39931;DHT22;26635;-35.248;149.138;2023-10-19T15:16:10;11.50;90.00
39931;DHT22;26635;-35.248;149.138;2023-10-19T15:18:44;11.40;90.10
39931;DHT22;26635;-35.248;149.138;2023-10-19T15:21:15;11.40;90.00
39931;DHT22;26635;-35.248;149.138;2023-10-19T15:23:47;11.40;90.10
39931;DHT22;26635;-35.248;149.138;2023-10-19T15:26:19;11.40;90.30
39931;DHT22;26635;-35.248;149.138;2023-10-19T15:28:52;11.40;90.20
39931;DHT22;26635;-35.248;149.138;2023-10-19T15:31:23;11.30;90.00
39931;DHT22;26635;-35.248;149.138;2023-10-19T15:33:55;11.30;90.00
39931;DHT22;26635;-35.248;149.138;2023-10-19T15:36:27;11.30;90.30
39931;DHT22;26635;-35.248;149.138;2023-10-19T15:38:57;11.20;90.90